Time;durP1;ratioP1;P1;durP2;ratioP2;P2;SDS_P1;SDS_P2;PMS_P1;PMS_P2;Temp;Humidity;BMP_temperature;BMP_pressure;BME280_temperature;BME280_humidity;BME280_pressure;Samples;Min_cycle;Max_cycle;Signal;HPM_P1;HPM_P2
2024/03/14 00:00:48;;;;;;;;;;;;;;;5.31;100.00;96541.84;111572;1249;22500;-88
2024/03/14 00:03:36;;;;;;;;;;;;;;;5.31;100.00;96537.75;111649;1249;22524;-88
2024/03/14 00:06:02;;;;;;;;;;;;;;;5.32;100.00;96539.86;111606;1249;23788;-88
2024/03/14 00:08:29;;;;;;;;;;;;;;;5.32;100.00;96543.59;111576;1249;22440;-88
2024/03/14 00:10:55;;;;;;;;;;;;;;;5.33;100.00;96537.81;111599;1249;22421;-88
2024/03/14 00:13:20;;;;;;;;;;;;;;;5.33;100.00;96534.04;111601;1249;22517;-88
2024/03/14 00:15:46;;;;;;;;;;;;;;;5.31;100.00;96533.71;111615;1247;22482;-88
2024/03/14 00:18:12;;;;;;;;;;;;;;;5.30;100.00;96537.82;111603;1249;24162;-88
2024/03/14 00:20:42;;;;;;;;;;;;;;;5.28;100.00;96537.51;111783;1249;23258;-88
2024/03/14 00:23:08;;;;;;;;;;;;;;;5.27;100.00;96533.58;112948;1248;22607;-89
2024/03/14 00:25:34;;;;;;;;;;;;;;;5.29;100.00;96529.30;112872;1249;23057;-88
2024/03/14 00:28:00;;;;;;;;;;;;;;;5.28;100.00;96530.75;112890;1249;22332;-88
2024/03/14 00:30:27;;;;;;;;;;;;;;;5.25;100.00;96527.14;112878;1249;22898;-89
2024/03/14 00:32:53;;;;;;;;;;;;;;;5.24;100.00;96526.20;112927;1249;22863;-88
2024/03/14 00:35:19;;;;;;;;;;;;;;;5.24;100.00;96528.42;112938;1248;22341;-89
2024/03/14 00:37:45;;;;;;;;;;;;;;;5.24;100.00;96528.91;112953;1249;23035;-89
2024/03/14 00:40:11;;;;;;;;;;;;;;;5.27;100.00;96525.92;112888;1247;22420;-89
2024/03/14 00:42:45;;;;;;;;;;;;;;;5.28;100.00;96523.17;112506;1249;24181;-89
2024/03/14 00:45:12;;;;;;;;;;;;;;;5.29;100.00;96517.45;111537;1249;22549;-89
2024/03/14 00:47:38;;;;;;;;;;;;;;;5.30;100.00;96514.59;111610;1249;24193;-88
2024/03/14 00:50:08;;;;;;;;;;;;;;;5.29;100.00;96512.23;111511;1249;23214;-89
2024/03/14 00:52:34;;;;;;;;;;;;;;;5.29;100.00;96512.33;111582;1249;22516;-88
2024/03/14 00:55:00;;;;;;;;;;;;;;;5.29;100.00;96511.07;111722;1246;24293;-89
2024/03/14 00:57:26;;;;;;;;;;;;;;;5.31;100.00;96507.59;111736;1249;22476;-89
2024/03/14 00:59:53;;;;;;;;;;;;;;;5.32;100.00;96504.63;111774;1249;25309;-89
2024/03/14 01:02:19;;;;;;;;;;;;;;;5.31;100.00;96501.91;111740;1249;22616;-88
2024/03/14 01:04:45;;;;;;;;;;;;;;;5.31;100.00;96497.34;111755;1249;22413;-89
2024/03/14 01:07:11;;;;;;;;;;;;;;;5.30;100.00;96490.73;111592;1249;25315;-89
2024/03/14 01:09:39;;;;;;;;;;;;;;;5.29;100.00;96492.17;111553;1249;22594;-89
2024/03/14 01:12:05;;;;;;;;;;;;;;;5.29;100.00;96485.38;111502;1249;22506;-89
2024/03/14 01:14:30;;;;;;;;;;;;;;;5.29;100.00;96486.67;111601;1249;22507;-89
2024/03/14 01:16:56;;;;;;;;;;;;;;;5.30;100.00;96487.13;111666;1249;22495;-89
2024/03/14 01:19:22;;;;;;;;;;;;;;;5.30;100.00;96490.25;111607;1247;23041;-89
2024/03/14 01:21:47;;;;;;;;;;;;;;;5.30;100.00;96500.14;111533;1249;23197;-88
2024/03/14 01:24:13;;;;;;;;;;;;;;;5.28;100.00;96499.86;111609;1249;22509;-89
2024/03/14 01:26:40;;;;;;;;;;;;;;;5.26;100.00;96496.79;111765;1249;25044;-89
2024/03/14 01:29:06;;;;;;;;;;;;;;;5.24;100.00;96492.65;111622;1249;23381;-88
2024/03/14 01:31:33;;;;;;;;;;;;;;;5.25;100.00;96487.63;111617;1247;25222;-89
2024/03/14 01:33:58;;;;;;;;;;;;;;;5.23;100.00;96484.55;111617;1249;22979;-88
2024/03/14 01:36:24;;;;;;;;;;;;;;;5.20;100.00;96489.25;111593;1249;22462;-86
2024/03/14 01:38:51;;;;;;;;;;;;;;;5.21;100.00;96493.70;111462;1239;24916;-85
2024/03/14 01:41:18;;;;;;;;;;;;;;;5.19;100.00;96503.48;111706;1249;22469;-85
2024/03/14 01:44:02;;;;;;;;;;;;;;;5.17;100.00;96491.75;111686;1246;22480;-85
2024/03/14 01:46:30;;;;;;;;;;;;;;;5.18;100.00;96483.42;111554;1249;23829;-86
2024/03/14 01:48:55;;;;;;;;;;;;;;;5.20;100.00;96479.65;111691;1249;22512;-85
2024/03/14 01:51:22;;;;;;;;;;;;;;;5.21;100.00;96478.73;111695;1243;22523;-85
2024/03/14 01:53:49;;;;;;;;;;;;;;;5.21;100.00;96481.82;111603;1246;22503;-85
2024/03/14 01:56:14;;;;;;;;;;;;;;;5.21;100.00;96484.18;111699;1249;22456;-85
2024/03/14 01:58:40;;;;;;;;;;;;;;;5.22;100.00;96482.41;111558;1249;23716;-86
2024/03/14 02:01:06;;;;;;;;;;;;;;;5.22;100.00;96479.67;111553;1249;22469;-86
2024/03/14 02:03:32;;;;;;;;;;;;;;;5.22;100.00;96480.49;111584;1248;22523;-85
2024/03/14 02:06:00;;;;;;;;;;;;;;;5.22;100.00;96479.65;111593;1249;22479;-85
2024/03/14 02:08:26;;;;;;;;;;;;;;;5.18;100.00;96474.89;112939;1249;22354;-85
2024/03/14 02:10:52;;;;;;;;;;;;;;;5.17;100.00;96473.79;113069;1249;22341;-86
2024/03/14 02:13:18;;;;;;;;;;;;;;;5.17;100.00;96470.14;113066;1249;23017;-86
2024/03/14 02:15:44;;;;;;;;;;;;;;;5.17;100.00;96465.52;112955;1249;22352;-84
2024/03/14 02:18:10;;;;;;;;;;;;;;;5.16;100.00;96464.43;112974;1249;22464;-84
2024/03/14 02:20:37;;;;;;;;;;;;;;;5.17;100.00;96461.61;112863;1249;22326;-84
2024/03/14 02:23:03;;;;;;;;;;;;;;;5.18;100.00;96460.75;112974;1249;22317;-84
2024/03/14 02:25:28;;;;;;;;;;;;;;;5.21;100.00;96461.44;112985;1249;22356;-84
2024/03/14 02:27:54;;;;;;;;;;;;;;;5.21;100.00;96463.25;113036;1249;22399;-84
2024/03/14 02:30:20;;;;;;;;;;;;;;;5.21;100.00;96463.98;113059;1249;22343;-84
2024/03/14 02:32:46;;;;;;;;;;;;;;;5.19;100.00;96462.38;111828;1249;22501;-85
2024/03/14 02:35:12;;;;;;;;;;;;;;;5.18;100.00;96459.92;111486;1249;22482;-86
2024/03/14 02:37:38;;;;;;;;;;;;;;;5.20;100.00;96463.03;111599;1247;23151;-85
2024/03/14 02:40:06;;;;;;;;;;;;;;;5.22;100.00;96460.98;111452;1248;23718;-85
2024/03/14 02:42:31;;;;;;;;;;;;;;;5.21;100.00;96456.36;111484;1249;24199;-86
2024/03/14 02:44:58;;;;;;;;;;;;;;;5.22;100.00;96468.16;111592;1249;22520;-85
2024/03/14 02:47:23;;;;;;;;;;;;;;;5.20;100.00;96465.92;111584;1249;25378;-86
2024/03/14 02:49:49;;;;;;;;;;;;;;;5.18;100.00;96466.10;111585;1249;24278;-85
2024/03/14 02:52:15;;;;;;;;;;;;;;;5.20;100.00;96467.81;111574;1249;22527;-85
2024/03/14 02:54:41;;;;;;;;;;;;;;;5.21;100.00;96469.63;111581;1249;23016;-86
2024/03/14 02:57:07;;;;;;;;;;;;;;;5.21;100.00;96468.11;111717;1249;25162;-86
2024/03/14 02:59:33;;;;;;;;;;;;;;;5.20;100.00;96471.95;111465;1249;23857;-85
2024/03/14 03:02:00;;;;;;;;;;;;;;;5.20;100.00;96469.05;111566;1245;22549;-85
2024/03/14 03:04:30;;;;;;;;;;;;;;;5.17;100.00;96467.89;111601;1247;22501;-85
2024/03/14 03:06:58;;;;;;;;;;;;;;;5.15;100.00;96464.71;111470;1249;25208;-85
2024/03/14 03:09:25;;;;;;;;;;;;;;;5.12;100.00;96460.48;111584;1247;24175;-86
2024/03/14 03:11:52;;;;;;;;;;;;;;;5.10;100.00;96463.55;111608;1249;25845;-85
2024/03/14 03:14:18;;;;;;;;;;;;;;;5.10;100.00;96458.60;111743;1249;22508;-85
2024/03/14 03:16:44;;;;;;;;;;;;;;;5.11;100.00;96457.52;111719;1249;23274;-85
2024/03/14 03:19:10;;;;;;;;;;;;;;;5.11;100.00;96461.09;111604;1246;22471;-85
2024/03/14 03:21:37;;;;;;;;;;;;;;;5.12;100.00;96462.15;111412;1248;22508;-85
2024/03/14 03:24:06;;;;;;;;;;;;;;;5.12;100.00;96462.86;111596;1249;22496;-86
2024/03/14 03:26:32;;;;;;;;;;;;;;;5.15;100.00;96463.02;111701;1249;22440;-85
2024/03/14 03:28:58;;;;;;;;;;;;;;;5.15;100.00;96464.14;111691;1249;22488;-85
2024/03/14 03:31:23;;;;;;;;;;;;;;;5.16;100.00;96463.77;111691;1249;22488;-86
2024/03/14 03:33:49;;;;;;;;;;;;;;;5.13;100.00;96471.59;111602;1249;22524;-85
2024/03/14 03:36:15;;;;;;;;;;;;;;;5.11;100.00;96472.98;111666;1249;22473;-86
2024/03/14 03:38:42;;;;;;;;;;;;;;;5.07;100.00;96470.11;111681;1249;22531;-85
2024/03/14 03:41:09;;;;;;;;;;;;;;;5.04;100.00;96473.95;111473;1249;22501;-85
2024/03/14 03:43:35;;;;;;;;;;;;;;;5.03;100.00;96470.80;111564;1249;25340;-85
2024/03/14 03:46:01;;;;;;;;;;;;;;;5.03;100.00;96477.80;111424;1249;22436;-86
2024/03/14 03:48:27;;;;;;;;;;;;;;;5.07;100.00;96477.68;111619;1249;23764;-85
2024/03/14 03:50:54;;;;;;;;;;;;;;;5.08;100.00;96473.26;111599;1249;22484;-85
2024/03/14 03:53:20;;;;;;;;;;;;;;;5.06;100.00;96473.43;111599;1249;22473;-85
2024/03/14 03:55:46;;;;;;;;;;;;;;;5.05;100.00;96471.63;111679;1249;22847;-85
2024/03/14 03:58:11;;;;;;;;;;;;;;;5.06;100.00;96469.70;111692;1249;22449;-85
2024/03/14 04:00:46;;;;;;;;;;;;;;;5.07;100.00;96469.23;111620;1247;22520;-85
2024/03/14 04:03:12;;;;;;;;;;;;;;;5.08;100.00;96470.65;111601;1249;23432;-85
2024/03/14 04:05:39;;;;;;;;;;;;;;;5.09;100.00;96474.55;111623;1249;22510;-85
2024/03/14 04:08:05;;;;;;;;;;;;;;;5.11;100.00;96471.80;111417;1249;22442;-85
2024/03/14 04:10:31;;;;;;;;;;;;;;;5.12;100.00;96473.94;111445;1247;22963;-85
2024/03/14 04:12:57;;;;;;;;;;;;;;;5.11;100.00;96473.50;112874;1249;22364;-86
2024/03/14 04:15:23;;;;;;;;;;;;;;;5.09;100.00;96475.17;112978;1249;22440;-86
2024/03/14 04:17:50;;;;;;;;;;;;;;;5.10;100.00;96479.10;113037;1249;22340;-86
2024/03/14 04:20:19;;;;;;;;;;;;;;;5.11;100.00;96474.50;112968;1249;22923;-86
2024/03/14 04:22:45;;;;;;;;;;;;;;;5.11;100.00;96478.11;112962;1249;22318;-86
2024/03/14 04:25:11;;;;;;;;;;;;;;;5.12;100.00;96483.17;112847;1249;22338;-84
2024/03/14 04:27:38;;;;;;;;;;;;;;;5.11;100.00;96479.15;112974;1249;22358;-84
2024/03/14 04:30:05;;;;;;;;;;;;;;;5.08;100.00;96482.02;112962;1249;22327;-84
2024/03/14 04:32:31;;;;;;;;;;;;;;;5.02;100.00;96484.61;112846;1249;23032;-84
2024/03/14 04:34:58;;;;;;;;;;;;;;;4.99;100.00;96489.70;113033;1246;22374;-84
2024/03/14 04:37:25;;;;;;;;;;;;;;;4.98;100.00;96495.02;112797;1248;23284;-84
2024/03/14 04:39:51;;;;;;;;;;;;;;;4.95;100.00;96495.74;112829;1249;22398;-84
2024/03/14 04:42:17;;;;;;;;;;;;;;;4.97;100.00;96490.61;112989;1248;23128;-84
2024/03/14 04:44:43;;;;;;;;;;;;;;;4.98;100.00;96492.23;112962;1249;23222;-84
2024/03/14 04:47:10;;;;;;;;;;;;;;;5.01;100.00;96492.80;112958;1249;22434;-84
2024/03/14 04:49:36;;;;;;;;;;;;;;;5.01;100.00;96498.98;112992;1248;23033;-84
2024/03/14 04:52:04;;;;;;;;;;;;;;;5.02;100.00;96497.87;112843;1249;22383;-84
2024/03/14 04:54:32;;;;;;;;;;;;;;;5.01;100.00;96494.52;112550;1249;24148;-83
2024/03/14 04:57:01;;;;;;;;;;;;;;;5.02;100.00;96496.51;111424;1249;22501;-85
2024/03/14 04:59:27;;;;;;;;;;;;;;;5.05;100.00;96499.33;111471;1248;24250;-85
2024/03/14 05:01:54;;;;;;;;;;;;;;;5.05;100.00;96501.89;112844;1249;22366;-86
2024/03/14 05:04:19;;;;;;;;;;;;;;;5.03;100.00;96502.02;112862;1248;22411;-85
2024/03/14 05:06:46;;;;;;;;;;;;;;;4.98;100.00;96500.27;112996;1248;22352;-86
2024/03/14 05:09:11;;;;;;;;;;;;;;;4.98;100.00;96501.53;112974;1249;22442;-87
2024/03/14 05:11:37;;;;;;;;;;;;;;;4.97;100.00;96507.73;112959;1248;22349;-86
2024/03/14 05:14:06;;;;;;;;;;;;;;;4.99;100.00;96507.42;112535;1249;22476;-86
2024/03/14 05:16:33;;;;;;;;;;;;;;;4.99;100.00;96507.05;111620;1249;24188;-85
2024/03/14 05:18:59;;;;;;;;;;;;;;;4.98;100.00;96502.36;111632;1249;22869;-85
2024/03/14 05:21:25;;;;;;;;;;;;;;;4.98;100.00;96501.27;111622;1249;22639;-86
2024/03/14 05:23:50;;;;;;;;;;;;;;;4.97;100.00;96513.42;111612;1249;25408;-85
2024/03/14 05:26:18;;;;;;;;;;;;;;;4.98;100.00;96510.05;111437;1249;22487;-85
2024/03/14 05:28:43;;;;;;;;;;;;;;;4.94;100.00;96513.17;111462;1247;22477;-85
2024/03/14 05:31:10;;;;;;;;;;;;;;;4.93;100.00;96513.55;111591;1249;23231;-85
2024/03/14 05:33:35;;;;;;;;;;;;;;;4.92;100.00;96509.94;111620;1246;22423;-86
2024/03/14 05:36:01;;;;;;;;;;;;;;;4.91;100.00;96508.86;111624;1249;25382;-86
2024/03/14 05:38:27;;;;;;;;;;;;;;;4.91;100.00;96513.15;111612;1249;22524;-85
2024/03/14 05:40:53;;;;;;;;;;;;;;;4.89;100.00;96519.02;111426;1249;22968;-85
2024/03/14 05:43:22;;;;;;;;;;;;;;;4.87;100.00;96517.08;111596;1248;22443;-85
2024/03/14 05:45:47;;;;;;;;;;;;;;;4.87;100.00;96514.37;111603;1249;24121;-85
2024/03/14 05:48:13;;;;;;;;;;;;;;;4.87;100.00;96517.97;111623;1249;22486;-85
2024/03/14 05:50:41;;;;;;;;;;;;;;;4.87;100.00;96518.33;111645;1248;23153;-85
2024/03/14 05:53:07;;;;;;;;;;;;;;;4.86;100.00;96523.23;111665;1249;25338;-86
2024/03/14 05:55:33;;;;;;;;;;;;;;;4.85;100.00;96524.48;111639;1249;22491;-85
2024/03/14 05:57:59;;;;;;;;;;;;;;;4.87;100.00;96526.05;111651;1246;22551;-85
2024/03/14 06:00:24;;;;;;;;;;;;;;;4.92;100.00;96527.67;111636;1249;22502;-86
2024/03/14 06:02:51;;;;;;;;;;;;;;;4.96;100.00;96532.96;111666;1249;22505;-85
2024/03/14 06:05:17;;;;;;;;;;;;;;;4.97;100.00;96535.45;111701;1249;22512;-85
2024/03/14 06:07:43;;;;;;;;;;;;;;;4.96;100.00;96538.20;111667;1249;22505;-86
2024/03/14 06:10:12;;;;;;;;;;;;;;;4.93;100.00;96532.19;111636;1249;22491;-85
2024/03/14 06:12:38;;;;;;;;;;;;;;;4.90;100.00;96532.31;111679;1249;22514;-86
2024/03/14 06:15:05;;;;;;;;;;;;;;;4.92;100.00;96534.56;111660;1249;22624;-85
2024/03/14 06:17:31;;;;;;;;;;;;;;;4.94;100.00;96534.48;111654;1249;22455;-85
2024/03/14 06:19:57;;;;;;;;;;;;;;;4.97;100.00;96538.98;111638;1249;22477;-86
2024/03/14 06:22:23;;;;;;;;;;;;;;;4.97;100.00;96534.52;111624;1249;23144;-85
2024/03/14 06:24:49;;;;;;;;;;;;;;;4.97;100.00;96540.35;111673;1249;22474;-85
2024/03/14 06:27:14;;;;;;;;;;;;;;;4.99;100.00;96540.20;111663;1249;24040;-86
2024/03/14 06:29:41;;;;;;;;;;;;;;;5.02;100.00;96542.29;111617;1249;25359;-85
2024/03/14 06:32:07;;;;;;;;;;;;;;;5.06;100.00;96547.09;111678;1249;25347;-85
2024/03/14 06:34:33;;;;;;;;;;;;;;;5.06;100.00;96545.84;111635;1249;22507;-85
2024/03/14 06:36:59;;;;;;;;;;;;;;;5.05;100.00;96545.96;111637;1248;22479;-85
2024/03/14 06:39:26;;;;;;;;;;;;;;;5.06;100.00;96544.48;111652;1249;25151;-86
2024/03/14 06:41:52;;;;;;;;;;;;;;;5.09;100.00;96549.41;111615;1249;23665;-86
2024/03/14 06:44:18;;;;;;;;;;;;;;;5.11;100.00;96547.66;111648;1249;22532;-85
2024/03/14 06:46:44;;;;;;;;;;;;;;;5.15;100.00;96551.08;111418;1249;23574;-85
2024/03/14 06:49:13;;;;;;;;;;;;;;;5.18;100.00;96549.36;111597;1249;22506;-85
2024/03/14 06:51:39;;;;;;;;;;;;;;;5.22;100.00;96545.76;111627;1249;22759;-85
2024/03/14 06:54:05;;;;;;;;;;;;;;;5.28;100.00;96547.64;111692;1249;23743;-86
2024/03/14 06:56:31;;;;;;;;;;;;;;;5.31;100.00;96543.52;111647;1248;24438;-85
2024/03/14 06:58:57;;;;;;;;;;;;;;;5.35;100.00;96540.70;111646;1249;22495;-85
2024/03/14 07:01:23;;;;;;;;;;;;;;;5.42;100.00;96535.98;111457;1249;22410;-85
2024/03/14 07:03:48;;;;;;;;;;;;;;;5.50;100.00;96534.21;111616;1249;22599;-86
2024/03/14 07:06:14;;;;;;;;;;;;;;;5.59;100.00;96532.98;111670;1249;22482;-85
2024/03/14 07:08:42;;;;;;;;;;;;;;;5.67;100.00;96536.45;111668;1248;22663;-85
2024/03/14 07:11:11;;;;;;;;;;;;;;;5.75;100.00;96533.35;111618;1249;22568;-86
2024/03/14 07:13:38;;;;;;;;;;;;;;;5.82;100.00;96536.63;112989;1249;22490;-86
2024/03/14 07:16:09;;;;;;;;;;;;;;;5.88;100.00;96538.93;112983;1249;23206;-86
2024/03/14 07:18:36;;;;;;;;;;;;;;;5.98;100.00;96538.34;112787;1249;22346;-84
2024/03/14 07:21:04;;;;;;;;;;;;;;;6.07;100.00;96543.81;113014;1246;22457;-84
2024/03/14 07:23:31;;;;;;;;;;;;;;;6.17;100.00;96540.88;112981;1249;22407;-84
2024/03/14 07:26:02;;;;;;;;;;;;;;;6.29;100.00;96544.38;112968;1249;22890;-84
2024/03/14 07:28:28;;;;;;;;;;;;;;;6.38;100.00;96547.88;112999;1248;22351;-84
2024/03/14 07:30:55;;;;;;;;;;;;;;;6.44;100.00;96552.59;113005;1249;22359;-84
2024/03/14 07:33:21;;;;;;;;;;;;;;;6.49;100.00;96559.59;112965;1249;23217;-84
2024/03/14 07:35:48;;;;;;;;;;;;;;;6.55;100.00;96560.58;112614;1249;25434;-84
2024/03/14 07:38:14;;;;;;;;;;;;;;;6.59;100.00;96561.81;111663;1249;22508;-84
2024/03/14 07:40:40;;;;;;;;;;;;;;;6.65;100.00;96560.39;111655;1249;22505;-86
2024/03/14 07:43:08;;;;;;;;;;;;;;;6.72;100.00;96564.60;111677;1249;22515;-86
2024/03/14 07:45:34;;;;;;;;;;;;;;;6.76;100.00;96563.45;111674;1249;25916;-86
2024/03/14 07:48:01;;;;;;;;;;;;;;;6.79;100.00;96566.38;111442;1248;22435;-85
2024/03/14 07:50:27;;;;;;;;;;;;;;;6.82;100.00;96568.16;111686;1249;23791;-85
2024/03/14 07:52:54;;;;;;;;;;;;;;;6.84;100.00;96570.23;111688;1249;22477;-86
2024/03/14 07:55:21;;;;;;;;;;;;;;;6.85;100.00;96569.08;111690;1249;25155;-85
2024/03/14 07:57:47;;;;;;;;;;;;;;;6.87;100.00;96569.73;111613;1249;22537;-86
2024/03/14 08:00:15;;;;;;;;;;;;;;;6.91;100.00;96569.83;111680;1249;22472;-85
2024/03/14 08:02:42;;;;;;;;;;;;;;;6.96;100.00;96571.42;111670;1249;22496;-86
2024/03/14 08:05:08;;;;;;;;;;;;;;;6.98;100.00;96569.14;111640;1249;22917;-85
2024/03/14 08:07:34;;;;;;;;;;;;;;;7.01;100.00;96571.96;111675;1249;22574;-86
2024/03/14 08:10:00;;;;;;;;;;;;;;;7.02;100.00;96574.09;111658;1249;23571;-86
2024/03/14 08:12:32;;;;;;;;;;;;;;;7.03;100.00;96573.45;111471;1249;22517;-86
2024/03/14 08:15:16;;;;;;;;;;;;;;;7.07;100.00;96569.61;111442;1249;22677;-86
2024/03/14 08:17:45;;;;;;;;;;;;;;;7.13;100.00;96570.41;111646;1249;22585;-85
2024/03/14 08:20:15;;;;;;;;;;;;;;;7.12;100.00;96573.80;111452;1249;22531;-85
2024/03/14 08:22:42;;;;;;;;;;;;;;;7.11;100.00;96571.14;111660;1249;22470;-85
2024/03/14 08:25:15;;;;;;;;;;;;;;;7.13;100.00;96571.80;111626;1249;25174;-85
2024/03/14 08:27:46;;;;;;;;;;;;;;;7.17;100.00;96574.09;111642;1249;22507;-86
2024/03/14 08:30:12;;;;;;;;;;;;;;;7.23;100.00;96573.17;111591;1249;22800;-86
2024/03/14 08:32:40;;;;;;;;;;;;;;;7.24;100.00;96571.14;111587;1249;22551;-85
2024/03/14 08:35:06;;;;;;;;;;;;;;;7.29;100.00;96574.50;111621;1249;22880;-86
2024/03/14 08:37:32;;;;;;;;;;;;;;;7.35;100.00;96576.13;111616;1249;22523;-86
2024/03/14 08:39:58;;;;;;;;;;;;;;;7.39;100.00;96578.30;111599;1249;22482;-86
2024/03/14 08:42:31;;;;;;;;;;;;;;;7.44;100.00;96578.27;111630;1249;22452;-85
2024/03/14 08:45:03;;;;;;;;;;;;;;;7.51;100.00;96574.89;111662;1246;22651;-86
2024/03/14 08:47:29;;;;;;;;;;;;;;;7.57;100.00;96578.61;111653;1249;22518;-86
2024/03/14 08:49:55;;;;;;;;;;;;;;;7.60;100.00;96581.33;111694;1249;23157;-85
2024/03/14 08:52:26;;;;;;;;;;;;;;;7.62;100.00;96577.92;111587;1249;23104;-86
2024/03/14 08:54:52;;;;;;;;;;;;;;;7.66;100.00;96581.48;112687;1248;22511;-86
2024/03/14 08:57:18;;;;;;;;;;;;;;;7.71;100.00;96585.82;111613;1249;22505;-86
2024/03/14 08:59:44;;;;;;;;;;;;;;;7.74;100.00;96582.00;111445;1249;23008;-86
2024/03/14 09:02:11;;;;;;;;;;;;;;;7.78;100.00;96586.11;111444;1249;22512;-86
2024/03/14 09:04:41;;;;;;;;;;;;;;;7.76;100.00;96586.43;111437;1249;22445;-85
2024/03/14 09:07:07;;;;;;;;;;;;;;;7.79;100.00;96584.58;111629;1249;23905;-86
2024/03/14 09:09:35;;;;;;;;;;;;;;;7.85;100.00;96583.81;111622;1248;22553;-86
2024/03/14 09:12:17;;;;;;;;;;;;;;;7.90;100.00;96582.26;111584;1249;25404;-86
2024/03/14 09:14:43;;;;;;;;;;;;;;;7.94;100.00;96583.03;111601;1249;23034;-86
2024/03/14 09:17:11;;;;;;;;;;;;;;;7.98;100.00;96584.70;111482;1249;22477;-86
2024/03/14 09:19:37;;;;;;;;;;;;;;;8.04;100.00;96580.49;111463;1249;22477;-86
2024/03/14 09:22:06;;;;;;;;;;;;;;;8.07;100.00;96580.48;111488;1249;166935;-86
2024/03/14 09:24:32;;;;;;;;;;;;;;;8.12;100.00;96580.39;111472;1249;22566;-86
2024/03/14 09:26:58;;;;;;;;;;;;;;;8.17;100.00;96576.02;112974;1249;22339;-84
2024/03/14 09:29:24;;;;;;;;;;;;;;;8.20;100.00;96576.84;112807;1248;23001;-84
2024/03/14 09:31:50;;;;;;;;;;;;;;;8.24;100.00;96578.69;112842;1249;22382;-84
2024/03/14 09:34:17;;;;;;;;;;;;;;;8.25;100.00;96578.00;112953;1249;23079;-84
2024/03/14 09:36:43;;;;;;;;;;;;;;;8.26;100.00;96577.73;112985;1248;22337;-84
2024/03/14 09:39:21;;;;;;;;;;;;;;;8.27;100.00;96576.67;112993;1249;23104;-84
2024/03/14 09:41:47;;;;;;;;;;;;;;;8.26;100.00;96576.34;113046;1249;22887;-84
2024/03/14 09:44:18;;;;;;;;;;;;;;;8.26;100.00;96576.86;112969;1249;22389;-84
2024/03/14 09:46:45;;;;;;;;;;;;;;;8.29;100.00;96575.73;112486;1249;22516;-83
2024/03/14 09:49:12;;;;;;;;;;;;;;;8.27;100.00;96577.64;111470;1249;22480;-85
2024/03/14 09:51:38;;;;;;;;;;;;;;;8.28;100.00;96575.80;111588;1249;22542;-84
2024/03/14 09:54:04;;;;;;;;;;;;;;;8.31;100.00;96574.16;111432;1249;22998;-85
2024/03/14 09:56:30;;;;;;;;;;;;;;;8.32;100.00;96571.41;111673;1249;25292;-85
2024/03/14 09:58:56;;;;;;;;;;;;;;;8.33;100.00;96572.36;111663;1249;24936;-85
2024/03/14 10:01:22;;;;;;;;;;;;;;;8.35;100.00;96571.14;111506;1249;25232;-85
2024/03/14 10:03:48;;;;;;;;;;;;;;;8.37;100.00;96570.75;111495;1249;22437;-85
2024/03/14 10:06:20;;;;;;;;;;;;;;;8.39;100.00;96572.95;111474;1249;22417;-85
2024/03/14 10:08:50;;;;;;;;;;;;;;;8.39;100.00;96576.73;111697;1249;22500;-85
2024/03/14 10:11:18;;;;;;;;;;;;;;;8.40;100.00;96575.64;111564;1249;22525;-85
2024/03/14 10:13:46;;;;;;;;;;;;;;;8.41;100.00;96574.59;111617;1249;22526;-85
2024/03/14 10:16:15;;;;;;;;;;;;;;;8.46;100.00;96574.85;111479;1249;22523;-85
2024/03/14 10:18:41;;;;;;;;;;;;;;;8.46;100.00;96574.46;111599;1249;22539;-85
2024/03/14 10:21:07;;;;;;;;;;;;;;;8.46;99.90;96571.88;111565;1249;22493;-85
2024/03/14 10:23:34;;;;;;;;;;;;;;;8.46;98.72;96571.89;111428;1249;22632;-85
2024/03/14 10:26:00;;;;;;;;;;;;;;;8.46;95.02;96567.77;111597;1246;22520;-85
2024/03/14 10:28:31;;;;;;;;;;;;;;;8.46;93.79;96569.30;111450;1249;25211;-85
2024/03/14 10:31:04;;;;;;;;;;;;;;;8.49;93.17;96571.04;111410;1249;25229;-85
2024/03/14 10:33:30;;;;;;;;;;;;;;;8.50;88.00;96569.61;111575;1249;22438;-85
2024/03/14 10:35:57;;;;;;;;;;;;;;;8.51;87.97;96569.64;111571;1249;22503;-85
2024/03/14 10:38:25;;;;;;;;;;;;;;;8.54;88.93;96567.94;111683;1249;22481;-85
2024/03/14 10:40:56;;;;;;;;;;;;;;;8.58;88.40;96568.91;111705;1249;25353;-85
2024/03/14 10:43:22;;;;;;;;;;;;;;;8.61;87.70;96571.08;111662;1249;22581;-86
2024/03/14 10:45:52;;;;;;;;;;;;;;;8.63;86.36;96573.67;111662;1249;22500;-85
2024/03/14 10:48:22;;;;;;;;;;;;;;;8.67;86.87;96571.17;111695;1249;22627;-85
2024/03/14 10:50:49;;;;;;;;;;;;;;;8.71;85.86;96570.94;111479;1249;22595;-85
2024/03/14 10:53:15;;;;;;;;;;;;;;;8.74;85.39;96567.45;111607;1249;22486;-85
2024/03/14 10:55:41;;;;;;;;;;;;;;;8.80;86.60;96566.29;111589;1249;22479;-85
2024/03/14 10:58:07;;;;;;;;;;;;;;;8.86;85.96;96559.91;111664;1249;22477;-85
2024/03/14 11:00:33;;;;;;;;;;;;;;;8.91;84.48;96562.64;111615;1249;22569;-85
2024/03/14 11:02:59;;;;;;;;;;;;;;;8.95;83.61;96559.50;111599;1249;22544;-85
2024/03/14 11:05:25;;;;;;;;;;;;;;;8.97;82.23;96557.73;111593;1249;22531;-85
2024/03/14 11:07:54;;;;;;;;;;;;;;;9.00;82.80;96558.59;111663;1249;25232;-85
2024/03/14 11:10:28;;;;;;;;;;;;;;;9.02;80.85;96559.77;111460;1249;23715;-85
2024/03/14 11:13:14;;;;;;;;;;;;;;;9.06;81.68;96557.29;111568;1249;22468;-85
2024/03/14 11:15:40;;;;;;;;;;;;;;;9.12;83.08;96556.89;111695;1249;22487;-85
2024/03/14 11:18:07;;;;;;;;;;;;;;;9.20;83.47;96553.45;111688;1249;22595;-85
2024/03/14 11:20:33;;;;;;;;;;;;;;;9.28;80.94;96553.28;111678;1249;22513;-85
2024/03/14 11:22:59;;;;;;;;;;;;;;;9.32;80.75;96550.51;111585;1249;22518;-85
2024/03/14 11:25:25;;;;;;;;;;;;;;;9.39;80.58;96548.23;111599;1249;22438;-85
2024/03/14 11:27:51;;;;;;;;;;;;;;;9.41;77.30;96551.98;111663;1248;22485;-86
2024/03/14 11:30:19;;;;;;;;;;;;;;;9.40;79.46;96549.16;111587;1249;22520;-85
2024/03/14 11:32:53;;;;;;;;;;;;;;;9.42;78.88;96550.34;111459;1249;22476;-85
2024/03/14 11:35:28;;;;;;;;;;;;;;;9.42;79.47;96545.45;111594;1249;22489;-86
2024/03/14 11:37:54;;;;;;;;;;;;;;;9.48;80.51;96544.83;111591;1249;22498;-85
2024/03/14 11:40:23;;;;;;;;;;;;;;;9.54;81.51;96541.51;111601;1248;22501;-85
2024/03/14 11:42:51;;;;;;;;;;;;;;;9.59;81.15;96534.95;111615;1249;22704;-85
2024/03/14 11:45:17;;;;;;;;;;;;;;;9.58;80.26;96533.98;111561;1249;22634;-85
2024/03/14 11:47:43;;;;;;;;;;;;;;;9.59;80.83;96534.02;111563;1249;24954;-85
2024/03/14 11:50:09;;;;;;;;;;;;;;;9.59;80.33;96533.39;111569;1249;22419;-85
2024/03/14 11:52:40;;;;;;;;;;;;;;;9.58;81.33;96533.34;111584;1249;23829;-85
2024/03/14 11:55:07;;;;;;;;;;;;;;;9.58;81.32;96531.23;111563;1248;22492;-85
2024/03/14 11:57:33;;;;;;;;;;;;;;;9.58;81.87;96527.04;111571;1249;24195;-85
2024/03/14 12:00:08;;;;;;;;;;;;;;;9.57;80.85;96524.27;111587;1249;23042;-85
2024/03/14 12:02:34;;;;;;;;;;;;;;;9.54;79.45;96527.52;111703;1249;22431;-85
2024/03/14 12:05:05;;;;;;;;;;;;;;;9.54;80.11;96522.53;111428;1249;23487;-85
2024/03/14 12:07:33;;;;;;;;;;;;;;;9.54;79.92;96522.11;111735;1249;22477;-85
2024/03/14 12:10:00;;;;;;;;;;;;;;;9.56;81.05;96527.41;111695;1249;22519;-85
2024/03/14 12:12:26;;;;;;;;;;;;;;;9.59;80.99;96522.96;113027;1249;22959;-85
2024/03/14 12:14:58;;;;;;;;;;;;;;;9.61;80.07;96519.59;113057;1249;22412;-86
2024/03/14 12:17:24;;;;;;;;;;;;;;;9.56;77.30;96521.38;112955;1249;22406;-85
2024/03/14 12:19:53;;;;;;;;;;;;;;;9.50;78.54;96518.48;112880;1249;22427;-85
2024/03/14 12:22:20;;;;;;;;;;;;;;;9.50;80.35;96516.05;112951;1249;22346;-86
2024/03/14 12:24:54;;;;;;;;;;;;;;;9.52;79.56;96518.24;112819;1248;22409;-85
2024/03/14 12:27:21;;;;;;;;;;;;;;;9.53;78.78;96518.30;113055;1237;22451;-85
2024/03/14 12:29:47;;;;;;;;;;;;;;;9.54;79.12;96517.20;112966;1247;22343;-85
2024/03/14 12:32:13;;;;;;;;;;;;;;;9.57;78.87;96514.57;112966;1249;22359;-86
2024/03/14 12:34:41;;;;;;;;;;;;;;;9.56;77.73;96516.27;112948;1247;23102;-85
2024/03/14 12:37:12;;;;;;;;;;;;;;;9.56;78.29;96513.24;112882;1248;22342;-85